createdAt,value
2022-12-22T00:01:36.682Z,4.57
2022-12-22T00:04:36.341Z,4.88
2022-12-22T00:07:41.607Z,4.93
2022-12-22T00:10:47.635Z,5.10
2022-12-22T00:13:48.402Z,4.63
2022-12-22T00:16:54.774Z,5.32
2022-12-22T00:19:53.955Z,4.90
2022-12-22T00:22:59.649Z,4.78
2022-12-22T00:25:58.959Z,4.82
2022-12-22T00:29:06.733Z,4.57
2022-12-22T00:32:12.683Z,4.68
2022-12-22T00:35:12.368Z,5.05
2022-12-22T00:38:17.651Z,5.38
2022-12-22T00:41:17.561Z,5.45
2022-12-22T00:44:24.634Z,5.00
2022-12-22T00:47:24.479Z,5.00
2022-12-22T00:50:30.622Z,5.95
2022-12-22T00:53:36.605Z,5.63
2022-12-22T00:56:35.734Z,4.50
2022-12-22T00:59:42.656Z,5.38
2022-12-22T01:02:41.457Z,4.45
2022-12-22T01:05:47.717Z,3.85
2022-12-22T01:08:46.248Z,6.00
2022-12-22T01:11:52.697Z,4.03
2022-12-22T01:14:53.581Z,3.95
2022-12-22T01:17:59.720Z,4.93
2022-12-22T01:20:58.476Z,4.22
2022-12-22T01:24:04.634Z,4.75
2022-12-22T01:27:09.729Z,6.47
2022-12-22T01:30:10.551Z,6.68
2022-12-22T01:33:16.756Z,5.20
2022-12-22T01:36:16.299Z,3.75
2022-12-22T01:39:21.714Z,4.15
2022-12-22T01:42:21.501Z,3.70
2022-12-22T01:45:32.683Z,3.53
2022-12-22T01:48:34.033Z,3.55
2022-12-22T01:51:42.642Z,4.95
2022-12-22T01:54:48.667Z,3.80
2022-12-22T01:57:48.555Z,3.78
2022-12-22T02:00:55.755Z,4.15
2022-12-22T02:03:54.549Z,3.92
2022-12-22T02:07:04.724Z,4.45
2022-12-22T02:10:09.577Z,3.60
2022-12-22T02:13:33.753Z,4.15
2022-12-22T02:16:45.898Z,4.60
2022-12-22T02:20:05.953Z,4.53
2022-12-22T02:23:23.745Z,4.10
2022-12-22T02:26:49.652Z,4.07
2022-12-22T02:29:53.707Z,3.60
2022-12-22T02:32:55.812Z,4.38
2022-12-22T02:36:06.742Z,3.50
2022-12-22T02:39:13.801Z,3.70
2022-12-22T02:42:27.674Z,3.35
2022-12-22T02:45:41.684Z,4.03
2022-12-22T02:48:47.601Z,4.65
2022-12-22T02:51:55.690Z,4.72
2022-12-22T02:54:56.385Z,3.45
2022-12-22T02:58:03.706Z,3.05
2022-12-22T03:01:03.684Z,3.28
2022-12-22T03:04:09.701Z,3.40
2022-12-22T03:07:08.543Z,3.03
2022-12-22T03:10:14.696Z,3.00
2022-12-22T03:13:21.751Z,3.83
2022-12-22T03:16:27.355Z,4.03
2022-12-22T03:19:25.689Z,3.63
2022-12-22T03:22:25.054Z,2.75
2022-12-22T03:25:29.708Z,4.03
2022-12-22T03:28:13.204Z,2.92
2022-12-22T03:31:07.747Z,2.63
2022-12-22T03:33:49.595Z,2.83
2022-12-22T03:36:37.727Z,2.17
2022-12-22T03:39:19.739Z,3.65
2022-12-22T03:42:24.665Z,2.95
2022-12-22T03:45:34.765Z,3.05
2022-12-22T03:48:15.902Z,4.75
2022-12-22T03:51:03.714Z,4.15
2022-12-22T03:53:51.929Z,2.75
2022-12-22T03:56:33.698Z,4.22
2022-12-22T03:59:16.247Z,3.40
2022-12-22T04:02:07.782Z,2.78
2022-12-22T04:04:49.632Z,2.30
2022-12-22T04:07:38.712Z,1.73
2022-12-22T04:10:54.690Z,1.67
2022-12-22T04:13:36.552Z,0.90
2022-12-22T04:16:24.784Z,1.15
2022-12-22T04:19:08.748Z,1.25
2022-12-22T04:21:57.717Z,0.95
2022-12-22T04:24:39.624Z,1.35
2022-12-22T04:27:27.717Z,0.60
2022-12-22T04:30:10.725Z,0.82
2022-12-22T04:32:58.697Z,1.05
2022-12-22T04:35:48.713Z,0.65
2022-12-22T04:38:29.912Z,0.98
2022-12-22T04:41:17.739Z,2.00
2022-12-22T04:43:58.862Z,1.00
2022-12-22T04:46:46.777Z,1.10
2022-12-22T04:49:27.937Z,1.75
2022-12-22T04:52:17.695Z,1.90
2022-12-22T04:54:58.914Z,2.70
2022-12-22T04:57:46.753Z,5.57
2022-12-22T05:00:28.929Z,4.47
2022-12-22T05:03:17.869Z,4.88
2022-12-22T05:06:06.742Z,5.47
2022-12-22T05:08:50.221Z,6.78
2022-12-22T05:11:37.696Z,7.07
2022-12-22T05:14:19.720Z,8.82
2022-12-22T05:17:07.904Z,8.52
2022-12-22T05:19:49.698Z,10.20
2022-12-22T05:22:37.718Z,9.25
2022-12-22T05:25:21.611Z,10.90
2022-12-22T05:28:09.731Z,11.20
2022-12-22T05:30:51.732Z,11.00
2022-12-22T05:33:40.800Z,13.10
2022-12-22T05:36:29.720Z,10.55
2022-12-22T05:39:10.915Z,10.52
2022-12-22T05:42:00.763Z,12.55
2022-12-22T05:44:42.034Z,14.90
2022-12-22T05:47:30.735Z,13.63
2022-12-22T05:50:12.959Z,13.52
2022-12-22T05:53:12.762Z,14.48
2022-12-22T05:55:54.938Z,14.45
2022-12-22T05:58:46.020Z,18.75
2022-12-22T06:01:33.892Z,18.80
2022-12-22T06:04:15.702Z,16.35
2022-12-22T06:07:03.747Z,17.88
2022-12-22T06:09:45.689Z,17.63
2022-12-22T06:12:33.820Z,20.45
2022-12-22T06:15:17.412Z,23.52
2022-12-22T06:18:04.740Z,21.52
2022-12-22T06:20:47.491Z,26.55
2022-12-22T06:23:35.798Z,28.27
2022-12-22T06:26:17.755Z,31.10
2022-12-22T06:29:05.778Z,25.83
2022-12-22T06:31:55.752Z,27.33
2022-12-22T06:34:37.040Z,23.77
2022-12-22T06:37:24.759Z,24.77
2022-12-22T06:40:05.921Z,26.08
2022-12-22T06:43:11.879Z,23.42
2022-12-22T06:45:53.002Z,29.70
2022-12-22T06:48:42.785Z,25.45
2022-12-22T06:51:24.026Z,28.60
2022-12-22T06:54:12.854Z,27.55
2022-12-22T06:57:00.742Z,24.13
2022-12-22T06:59:42.855Z,25.38
2022-12-22T07:02:30.868Z,26.75
2022-12-22T07:05:15.639Z,31.70
2022-12-22T07:08:08.698Z,30.10
2022-12-22T07:11:00.547Z,27.77
2022-12-22T07:13:49.789Z,26.45
2022-12-22T07:16:31.917Z,30.50
2022-12-22T07:19:19.770Z,25.50
2022-12-22T07:22:03.161Z,28.15
2022-12-22T07:24:51.773Z,29.33
2022-12-22T07:27:39.780Z,25.02
2022-12-22T07:30:22.077Z,27.95
2022-12-22T07:33:10.775Z,31.60
2022-12-22T07:35:53.028Z,26.65
2022-12-22T07:38:44.790Z,21.60
2022-12-22T07:41:45.407Z,21.10
2022-12-22T07:44:33.791Z,23.92
2022-12-22T07:47:15.916Z,25.63
2022-12-22T07:50:21.866Z,20.67
2022-12-22T07:53:18.770Z,21.92
2022-12-22T07:56:05.265Z,23.42
2022-12-22T07:58:52.808Z,24.88
2022-12-22T08:01:35.017Z,28.05
2022-12-22T08:04:23.918Z,33.22
2022-12-22T08:07:05.791Z,30.48
2022-12-22T08:09:53.844Z,28.02
2022-12-22T08:12:37.254Z,34.03
2022-12-22T08:15:25.763Z,29.60
2022-12-22T08:18:13.797Z,30.65
2022-12-22T08:20:57.041Z,34.15
2022-12-22T08:23:44.797Z,34.50
2022-12-22T08:26:30.016Z,30.20
2022-12-22T08:29:22.806Z,28.70
2022-12-22T08:32:05.174Z,31.90
2022-12-22T08:34:55.824Z,30.40
2022-12-22T08:37:41.397Z,33.10
2022-12-22T08:40:31.840Z,30.92
2022-12-22T08:43:17.097Z,29.33
2022-12-22T08:46:06.836Z,32.20
2022-12-22T08:48:54.935Z,31.23
2022-12-22T08:51:40.386Z,32.72
2022-12-22T08:54:30.816Z,31.50
2022-12-22T08:57:12.723Z,30.92
2022-12-22T09:00:00.785Z,31.95
2022-12-22T09:02:44.386Z,31.38
2022-12-22T09:05:32.781Z,30.92
2022-12-22T09:08:14.768Z,26.33
2022-12-22T09:11:02.803Z,26.70
2022-12-22T09:13:44.833Z,20.80
2022-12-22T09:16:33.983Z,17.02
2022-12-22T09:19:30.857Z,21.50
2022-12-22T09:22:12.810Z,19.10
2022-12-22T09:25:01.793Z,19.23
2022-12-22T09:27:43.855Z,22.58
2022-12-22T09:30:32.835Z,17.85
2022-12-22T09:33:14.653Z,22.80
2022-12-22T09:36:04.841Z,19.92
2022-12-22T09:38:47.752Z,22.50
2022-12-22T09:41:44.855Z,19.85
2022-12-22T09:44:35.900Z,19.92
2022-12-22T09:47:24.129Z,20.83
2022-12-22T09:50:13.814Z,24.05
2022-12-22T09:53:14.820Z,22.60
2022-12-22T09:56:02.851Z,22.30
2022-12-22T09:58:45.294Z,23.25
2022-12-22T10:01:47.646Z,25.92
2022-12-22T10:04:53.004Z,25.05
2022-12-22T10:07:43.927Z,25.25
2022-12-22T10:10:31.119Z,33.88
2022-12-22T10:13:25.922Z,26.33
2022-12-22T10:16:14.887Z,32.33
2022-12-22T10:19:07.107Z,25.50
2022-12-22T10:21:58.899Z,25.73
2022-12-22T10:24:40.800Z,21.17
2022-12-22T10:27:31.868Z,25.23
2022-12-22T10:30:24.285Z,23.50
2022-12-22T10:33:21.857Z,26.23
2022-12-22T10:36:03.889Z,25.20
2022-12-22T10:38:53.814Z,19.95
2022-12-22T10:41:39.113Z,21.98
2022-12-22T10:44:36.911Z,21.73
2022-12-22T10:47:28.983Z,23.52
2022-12-22T10:50:11.041Z,19.73
2022-12-22T10:53:00.949Z,18.40
2022-12-22T10:55:44.552Z,19.70
2022-12-22T10:58:32.804Z,19.50
2022-12-22T11:01:19.089Z,21.05
2022-12-22T11:04:23.822Z,31.13
2022-12-22T11:07:07.049Z,18.35
2022-12-22T11:09:55.899Z,18.60
2022-12-22T11:12:48.672Z,15.10
2022-12-22T11:15:44.851Z,13.45
2022-12-22T11:19:01.889Z,13.65
2022-12-22T11:21:57.123Z,11.38
2022-12-22T11:24:47.592Z,11.43
2022-12-22T11:27:45.557Z,9.23
2022-12-22T11:30:37.863Z,10.32
2022-12-22T11:33:42.042Z,9.35
2022-12-22T11:36:37.886Z,7.90
2022-12-22T11:39:32.483Z,6.97
2022-12-22T11:42:43.913Z,5.13
2022-12-22T11:45:43.630Z,8.60
2022-12-22T11:49:05.871Z,6.05
2022-12-22T11:52:12.933Z,4.53
2022-12-22T11:55:18.082Z,5.78
2022-12-22T11:58:11.954Z,7.95
2022-12-22T12:01:16.190Z,7.90
2022-12-22T12:04:29.929Z,8.10
2022-12-22T12:07:27.137Z,14.00
2022-12-22T12:10:26.925Z,4.40
2022-12-22T12:13:23.379Z,5.18
2022-12-22T12:16:24.990Z,5.60
2022-12-22T12:19:28.856Z,5.28
2022-12-22T12:22:19.947Z,5.40
2022-12-22T12:25:11.379Z,5.07
2022-12-22T12:28:10.937Z,4.10
2022-12-22T12:30:56.196Z,5.35
2022-12-22T12:33:51.976Z,8.05
2022-12-22T12:36:42.848Z,5.93
2022-12-22T12:39:38.892Z,4.80
2022-12-22T12:42:36.881Z,5.35
2022-12-22T12:45:44.168Z,3.95
2022-12-22T12:48:47.922Z,2.53
2022-12-22T12:51:55.413Z,5.38
2022-12-22T12:54:48.857Z,4.57
2022-12-22T12:57:38.151Z,5.00
2022-12-22T13:00:53.934Z,2.38
2022-12-22T13:04:05.418Z,3.42
2022-12-22T13:06:59.984Z,2.25
2022-12-22T13:10:08.540Z,3.42
2022-12-22T13:13:04.932Z,2.80
2022-12-22T13:15:46.821Z,3.80
2022-12-22T13:18:51.650Z,4.35
2022-12-22T13:21:53.515Z,2.38
2022-12-22T13:24:48.972Z,5.05
2022-12-22T13:27:37.946Z,4.00
2022-12-22T13:30:22.848Z,5.15
2022-12-22T13:33:11.934Z,5.63
2022-12-22T13:35:58.724Z,3.97
2022-12-22T13:38:49.925Z,8.30
2022-12-22T13:41:33.453Z,11.20
2022-12-22T13:44:25.901Z,6.70
2022-12-22T13:47:15.680Z,5.20
2022-12-22T13:50:10.971Z,8.02
2022-12-22T13:53:06.882Z,10.80
2022-12-22T13:55:56.892Z,14.23
2022-12-22T13:58:51.905Z,11.90
2022-12-22T14:01:40.307Z,6.63
2022-12-22T14:04:23.031Z,9.20
2022-12-22T14:07:12.107Z,9.00
2022-12-22T14:10:01.911Z,13.90
2022-12-22T14:12:47.854Z,10.30
2022-12-22T14:15:37.003Z,9.63
2022-12-22T14:18:24.747Z,13.27
2022-12-22T14:21:14.973Z,11.45
2022-12-22T14:23:56.953Z,7.05
2022-12-22T14:26:46.215Z,11.90
2022-12-22T14:29:29.815Z,11.40
2022-12-22T14:32:18.974Z,14.60
2022-12-22T14:35:06.934Z,10.18
2022-12-22T14:37:50.117Z,14.23
2022-12-22T14:40:40.926Z,14.55
2022-12-22T14:43:33.175Z,13.25
2022-12-22T14:46:21.033Z,15.13
2022-12-22T14:49:05.197Z,21.98
2022-12-22T14:52:01.962Z,19.77
2022-12-22T14:54:55.197Z,13.02
2022-12-22T14:57:42.928Z,19.27
2022-12-22T15:00:36.974Z,14.05
2022-12-22T15:03:45.076Z,15.52
2022-12-22T15:06:36.235Z,49.60
2022-12-22T15:10:13.677Z,17.98
2022-12-22T15:12:51.020Z,24.25
2022-12-22T15:15:33.152Z,27.63
2022-12-22T15:18:22.966Z,18.83
2022-12-22T15:21:05.169Z,18.85
2022-12-22T15:23:53.926Z,18.88
2022-12-22T15:26:37.942Z,28.27
2022-12-22T15:29:27.934Z,29.63
2022-12-22T15:32:10.162Z,27.85
2022-12-22T15:34:57.938Z,36.88
2022-12-22T15:37:39.202Z,38.33
2022-12-22T15:40:30.038Z,26.75
2022-12-22T15:43:28.887Z,31.75
2022-12-22T15:46:14.997Z,26.98
2022-12-22T15:49:03.919Z,34.55
2022-12-22T15:51:46.569Z,36.78
2022-12-22T15:54:39.940Z,25.75
2022-12-22T15:57:22.197Z,30.45
2022-12-22T16:00:10.950Z,30.70
2022-12-22T16:02:54.439Z,35.05
2022-12-22T16:05:42.994Z,33.08
2022-12-22T16:08:27.131Z,34.65
2022-12-22T16:11:16.077Z,34.17
2022-12-22T16:13:59.095Z,37.47
2022-12-22T16:16:47.958Z,35.28
2022-12-22T16:19:37.965Z,38.05
2022-12-22T16:22:24.016Z,34.67
2022-12-22T16:25:13.971Z,36.70
2022-12-22T16:27:56.590Z,37.22
2022-12-22T16:30:47.729Z,38.17
2022-12-22T16:33:30.077Z,35.83
2022-12-22T16:36:20.947Z,26.80
2022-12-22T16:39:02.937Z,32.63
2022-12-22T16:41:59.512Z,43.22
2022-12-22T16:45:01.078Z,34.05
2022-12-22T16:47:43.965Z,36.85
2022-12-22T16:50:39.010Z,38.00
2022-12-22T16:53:36.967Z,38.30
2022-12-22T16:56:27.959Z,38.40
2022-12-22T16:59:10.197Z,31.55
2022-12-22T17:02:00.083Z,34.03
2022-12-22T17:04:42.139Z,34.15
2022-12-22T17:07:30.945Z,39.13
2022-12-22T17:10:22.194Z,36.80
2022-12-22T17:13:10.984Z,31.05
2022-12-22T17:15:56.272Z,32.28
2022-12-22T17:18:38.981Z,30.95
2022-12-22T17:21:28.027Z,27.35
2022-12-22T17:24:09.219Z,35.13
2022-12-22T17:26:58.992Z,32.45
2022-12-22T17:29:41.233Z,30.90
2022-12-22T17:32:29.971Z,32.95
2022-12-22T17:35:12.207Z,27.00
2022-12-22T17:38:00.976Z,27.52
2022-12-22T17:40:43.285Z,25.48
2022-12-22T17:43:33.975Z,25.40
2022-12-22T17:46:22.216Z,31.13
2022-12-22T17:49:10.056Z,27.08
2022-12-22T17:51:58.966Z,19.73
2022-12-22T17:54:53.951Z,24.05
2022-12-22T17:57:43.972Z,30.02
2022-12-22T18:00:30.142Z,19.75
2022-12-22T18:03:21.131Z,23.42
2022-12-22T18:06:03.203Z,22.42
2022-12-22T18:08:51.996Z,21.25
2022-12-22T18:11:34.299Z,16.30
2022-12-22T18:14:22.963Z,22.30
2022-12-22T18:17:13.043Z,18.70
2022-12-22T18:19:55.543Z,13.05
2022-12-22T18:22:45.035Z,18.02
2022-12-22T18:25:29.699Z,27.23
2022-12-22T18:28:18.020Z,15.45
2022-12-22T18:30:59.999Z,17.95
2022-12-22T18:33:50.000Z,18.73
2022-12-22T18:36:33.772Z,21.15
2022-12-22T18:39:30.980Z,20.30
2022-12-22T18:42:28.072Z,20.08
2022-12-22T18:45:10.183Z,19.75
2022-12-22T18:47:57.983Z,16.20
2022-12-22T18:50:42.147Z,12.57
2022-12-22T18:53:34.994Z,17.20
2022-12-22T18:56:20.234Z,17.23
2022-12-22T18:59:09.020Z,13.60
2022-12-22T19:01:51.364Z,13.30
2022-12-22T19:04:38.965Z,18.25
2022-12-22T19:07:26.166Z,16.00
2022-12-22T19:10:16.035Z,16.92
2022-12-22T19:13:09.064Z,10.98
2022-12-22T19:15:51.835Z,23.30
2022-12-22T19:18:41.987Z,19.33
2022-12-22T19:21:23.871Z,17.10
2022-12-22T19:24:14.013Z,14.07
2022-12-22T19:26:56.053Z,15.63
2022-12-22T19:29:45.032Z,11.25
2022-12-22T19:32:29.819Z,14.95
2022-12-22T19:35:21.011Z,12.60
2022-12-22T19:38:24.047Z,12.90
2022-12-22T19:41:10.235Z,17.92
2022-12-22T19:43:59.127Z,13.05
2022-12-22T19:46:42.193Z,11.32
2022-12-22T19:49:32.999Z,20.40
2022-12-22T19:52:17.176Z,14.15
2022-12-22T19:55:05.012Z,12.43
2022-12-22T19:57:50.272Z,12.32
2022-12-22T20:00:38.075Z,15.10
2022-12-22T20:03:22.338Z,13.88
2022-12-22T20:06:11.032Z,12.07
2022-12-22T20:08:54.215Z,12.70
2022-12-22T20:11:43.004Z,9.13
2022-12-22T20:14:34.073Z,7.95
2022-12-22T20:17:15.981Z,11.13
2022-12-22T20:20:05.160Z,12.90
2022-12-22T20:22:50.218Z,16.73
2022-12-22T20:25:41.058Z,12.32
2022-12-22T20:28:25.781Z,14.50
2022-12-22T20:31:16.142Z,14.25
2022-12-22T20:33:57.945Z,13.27
2022-12-22T20:36:47.694Z,9.60
2022-12-22T20:39:35.070Z,11.98
2022-12-22T20:42:25.673Z,10.30
2022-12-22T20:45:14.044Z,9.40
2022-12-22T20:47:58.203Z,16.08
2022-12-22T20:50:46.680Z,12.90
2022-12-22T20:53:28.255Z,17.27
2022-12-22T20:56:27.072Z,15.48
2022-12-22T20:59:20.875Z,13.98
2022-12-22T21:02:09.249Z,11.45
2022-12-22T21:04:59.027Z,11.13
2022-12-22T21:07:41.682Z,14.35
2022-12-22T21:10:31.035Z,10.20
2022-12-22T21:13:14.040Z,15.02
2022-12-22T21:16:05.133Z,14.65
2022-12-22T21:18:47.979Z,16.75
2022-12-22T21:21:38.046Z,10.60
2022-12-22T21:24:20.082Z,11.77
2022-12-22T21:27:11.051Z,14.80
2022-12-22T21:30:00.027Z,10.60
2022-12-22T21:32:42.304Z,11.68
2022-12-22T21:35:34.054Z,11.48
2022-12-22T21:38:24.390Z,11.68
2022-12-22T21:41:13.059Z,10.80
2022-12-22T21:43:55.305Z,7.40
2022-12-22T21:46:44.204Z,9.20
2022-12-22T21:49:27.302Z,14.43
2022-12-22T21:52:15.085Z,10.45
2022-12-22T21:55:14.064Z,11.63
2022-12-22T21:57:56.520Z,8.32
2022-12-22T22:00:46.706Z,17.88
2022-12-22T22:03:28.222Z,11.73
2022-12-22T22:06:17.105Z,8.50
2022-12-22T22:08:59.021Z,11.23
2022-12-22T22:12:03.156Z,12.52
2022-12-22T22:14:45.646Z,16.88
2022-12-22T22:17:34.124Z,12.70
2022-12-22T22:20:25.170Z,12.65
2022-12-22T22:23:07.268Z,15.30
2022-12-22T22:26:03.216Z,13.35
2022-12-22T22:28:46.512Z,11.05
2022-12-22T22:31:34.123Z,15.45
2022-12-22T22:34:16.283Z,11.35
2022-12-22T22:37:04.098Z,13.35
2022-12-22T22:39:46.360Z,19.33
2022-12-22T22:42:38.663Z,12.20
2022-12-22T22:45:24.383Z,16.05
2022-12-22T22:48:25.113Z,14.13
2022-12-22T22:51:14.081Z,17.58
2022-12-22T22:54:09.063Z,19.55
2022-12-22T22:56:57.154Z,14.10
2022-12-22T22:59:38.318Z,17.92
2022-12-22T23:02:28.220Z,17.30
2022-12-22T23:05:10.249Z,20.83
2022-12-22T23:07:59.135Z,18.80
2022-12-22T23:10:42.151Z,20.92
2022-12-22T23:13:31.069Z,19.70
2022-12-22T23:16:20.153Z,20.15
2022-12-22T23:19:03.416Z,19.33
2022-12-22T23:21:51.118Z,16.90
2022-12-22T23:24:33.192Z,20.25
2022-12-22T23:27:22.094Z,13.88
2022-12-22T23:30:04.739Z,16.85
2022-12-22T23:32:52.103Z,17.20
2022-12-22T23:35:37.165Z,16.65
2022-12-22T23:38:25.101Z,13.48
2022-12-22T23:41:10.885Z,16.42
2022-12-22T23:43:59.195Z,12.88
2022-12-22T23:46:48.191Z,14.65
2022-12-22T23:49:30.374Z,11.13
2022-12-22T23:52:20.089Z,17.58
2022-12-22T23:55:15.111Z,15.35
2022-12-22T23:58:03.104Z,13.75
